sensor_id;sensor_type;location;lat;lon;timestamp;P1;durP1;ratioP1;P2;durP2;ratioP2
72422;SDS011;60413;55.658;37.498;2023-02-28T00:01:39;15.07;;;6.10;;
72422;SDS011;60413;55.658;37.498;2023-02-28T00:04:07;14.93;;;6.15;;
72422;SDS011;60413;55.658;37.498;2023-02-28T00:06:34;12.38;;;5.63;;
72422;SDS011;60413;55.658;37.498;2023-02-28T00:09:00;11.13;;;5.63;;
72422;SDS011;60413;55.658;37.498;2023-02-28T00:11:26;11.75;;;5.72;;
72422;SDS011;60413;55.658;37.498;2023-02-28T00:13:52;13.82;;;5.72;;
72422;SDS011;60413;55.658;37.498;2023-02-28T00:16:21;14.43;;;5.80;;
72422;SDS011;60413;55.658;37.498;2023-02-28T00:18:48;13.02;;;4.00;;
72422;SDS011;60413;55.658;37.498;2023-02-28T00:21:17;11.38;;;5.22;;
72422;SDS011;60413;55.658;37.498;2023-02-28T00:23:49;12.73;;;5.55;;
72422;SDS011;60413;55.658;37.498;2023-02-28T00:26:15;12.10;;;5.70;;
72422;SDS011;60413;55.658;37.498;2023-02-28T00:28:48;18.98;;;6.18;;
72422;SDS011;60413;55.658;37.498;2023-02-28T00:31:14;17.13;;;5.60;;
72422;SDS011;60413;55.658;37.498;2023-02-28T00:33:40;19.02;;;6.68;;
72422;SDS011;60413;55.658;37.498;2023-02-28T00:36:11;12.57;;;5.63;;
72422;SDS011;60413;55.658;37.498;2023-02-28T00:38:48;13.57;;;5.72;;
72422;SDS011;60413;55.658;37.498;2023-02-28T00:41:26;17.38;;;5.55;;
72422;SDS011;60413;55.658;37.498;2023-02-28T00:43:52;17.50;;;5.82;;
72422;SDS011;60413;55.658;37.498;2023-02-28T00:46:18;13.65;;;5.78;;
72422;SDS011;60413;55.658;37.498;2023-02-28T00:48:44;13.93;;;5.95;;
72422;SDS011;60413;55.658;37.498;2023-02-28T00:51:10;14.73;;;6.05;;
72422;SDS011;60413;55.658;37.498;2023-02-28T00:53:41;11.75;;;4.28;;
72422;SDS011;60413;55.658;37.498;2023-02-28T00:56:10;7.53;;;3.63;;
72422;SDS011;60413;55.658;37.498;2023-02-28T00:58:36;17.33;;;6.40;;
72422;SDS011;60413;55.658;37.498;2023-02-28T01:01:16;15.52;;;5.82;;
72422;SDS011;60413;55.658;37.498;2023-02-28T01:03:45;14.98;;;6.15;;
72422;SDS011;60413;55.658;37.498;2023-02-28T01:06:11;17.70;;;6.72;;
72422;SDS011;60413;55.658;37.498;2023-02-28T01:08:40;14.63;;;6.15;;
72422;SDS011;60413;55.658;37.498;2023-02-28T01:11:07;13.13;;;5.07;;
72422;SDS011;60413;55.658;37.498;2023-02-28T01:13:35;16.98;;;5.90;;
72422;SDS011;60413;55.658;37.498;2023-02-28T01:16:01;12.35;;;4.95;;
72422;SDS011;60413;55.658;37.498;2023-02-28T01:18:28;18.13;;;5.57;;
72422;SDS011;60413;55.658;37.498;2023-02-28T01:20:54;13.20;;;5.90;;
72422;SDS011;60413;55.658;37.498;2023-02-28T01:23:21;14.95;;;5.90;;
72422;SDS011;60413;55.658;37.498;2023-02-28T01:25:49;6.53;;;2.55;;
72422;SDS011;60413;55.658;37.498;2023-02-28T01:28:18;10.38;;;4.88;;
72422;SDS011;60413;55.658;37.498;2023-02-28T01:30:47;11.20;;;4.82;;
72422;SDS011;60413;55.658;37.498;2023-02-28T01:33:14;12.80;;;5.70;;
72422;SDS011;60413;55.658;37.498;2023-02-28T01:35:43;11.80;;;4.82;;
72422;SDS011;60413;55.658;37.498;2023-02-28T01:38:10;13.80;;;5.82;;
72422;SDS011;60413;55.658;37.498;2023-02-28T01:40:36;18.88;;;6.85;;
72422;SDS011;60413;55.658;37.498;2023-02-28T01:43:09;14.75;;;5.93;;
72422;SDS011;60413;55.658;37.498;2023-02-28T01:45:46;10.20;;;4.88;;
72422;SDS011;60413;55.658;37.498;2023-02-28T01:48:15;14.57;;;5.88;;
72422;SDS011;60413;55.658;37.498;2023-02-28T01:50:49;13.75;;;6.65;;
72422;SDS011;60413;55.658;37.498;2023-02-28T01:53:18;13.27;;;5.57;;
72422;SDS011;60413;55.658;37.498;2023-02-28T01:55:49;11.93;;;5.00;;
72422;SDS011;60413;55.658;37.498;2023-02-28T01:58:19;9.75;;;4.88;;
72422;SDS011;60413;55.658;37.498;2023-02-28T02:00:46;9.85;;;4.55;;
72422;SDS011;60413;55.658;37.498;2023-02-28T02:03:14;8.88;;;4.13;;
72422;SDS011;60413;55.658;37.498;2023-02-28T02:05:44;8.52;;;3.63;;
72422;SDS011;60413;55.658;37.498;2023-02-28T02:08:16;10.30;;;3.13;;
72422;SDS011;60413;55.658;37.498;2023-02-28T02:10:56;10.43;;;4.50;;
72422;SDS011;60413;55.658;37.498;2023-02-28T02:19:23;9.45;;;4.38;;
72422;SDS011;60413;55.658;37.498;2023-02-28T02:22:20;10.65;;;4.70;;
72422;SDS011;60413;55.658;37.498;2023-02-28T02:36:27;12.30;;;5.70;;
72422;SDS011;60413;55.658;37.498;2023-02-28T02:41:52;9.55;;;4.10;;
72422;SDS011;60413;55.658;37.498;2023-02-28T02:47:06;10.60;;;3.65;;
72422;SDS011;60413;55.658;37.498;2023-02-28T02:49:37;7.05;;;3.33;;
72422;SDS011;60413;55.658;37.498;2023-02-28T02:52:06;9.75;;;4.18;;
72422;SDS011;60413;55.658;37.498;2023-02-28T02:54:36;10.40;;;4.03;;
72422;SDS011;60413;55.658;37.498;2023-02-28T02:57:28;10.68;;;4.57;;
72422;SDS011;60413;55.658;37.498;2023-02-28T02:59:55;6.85;;;3.45;;
72422;SDS011;60413;55.658;37.498;2023-02-28T03:02:23;10.82;;;4.07;;
72422;SDS011;60413;55.658;37.498;2023-02-28T03:04:51;14.95;;;3.95;;
72422;SDS011;60413;55.658;37.498;2023-02-28T03:07:20;5.82;;;3.05;;
72422;SDS011;60413;55.658;37.498;2023-02-28T03:09:51;10.63;;;3.20;;
72422;SDS011;60413;55.658;37.498;2023-02-28T03:12:18;12.75;;;4.68;;
72422;SDS011;60413;55.658;37.498;2023-02-28T03:14:52;10.13;;;3.55;;
72422;SDS011;60413;55.658;37.498;2023-02-28T03:17:37;8.07;;;3.83;;
72422;SDS011;60413;55.658;37.498;2023-02-28T03:20:33;10.90;;;3.33;;
72422;SDS011;60413;55.658;37.498;2023-02-28T03:23:11;8.85;;;3.60;;
72422;SDS011;60413;55.658;37.498;2023-02-28T03:28:51;11.13;;;4.13;;
72422;SDS011;60413;55.658;37.498;2023-02-28T03:33:51;8.82;;;3.53;;
72422;SDS011;60413;55.658;37.498;2023-02-28T03:36:28;10.57;;;3.25;;
72422;SDS011;60413;55.658;37.498;2023-02-28T03:39:01;7.63;;;3.35;;
72422;SDS011;60413;55.658;37.498;2023-02-28T03:41:36;9.02;;;3.70;;
72422;SDS011;60413;55.658;37.498;2023-02-28T03:44:32;9.05;;;3.75;;
72422;SDS011;60413;55.658;37.498;2023-02-28T03:47:05;10.70;;;3.40;;
72422;SDS011;60413;55.658;37.498;2023-02-28T03:49:49;7.15;;;3.70;;
72422;SDS011;60413;55.658;37.498;2023-02-28T03:52:19;6.60;;;2.88;;
72422;SDS011;60413;55.658;37.498;2023-02-28T03:54:52;7.15;;;3.28;;
72422;SDS011;60413;55.658;37.498;2023-02-28T04:00:17;8.90;;;4.50;;
72422;SDS011;60413;55.658;37.498;2023-02-28T04:02:45;8.75;;;3.25;;
72422;SDS011;60413;55.658;37.498;2023-02-28T04:05:12;6.30;;;2.38;;
72422;SDS011;60413;55.658;37.498;2023-02-28T04:07:38;6.85;;;3.50;;
72422;SDS011;60413;55.658;37.498;2023-02-28T04:10:06;7.85;;;3.28;;
72422;SDS011;60413;55.658;37.498;2023-02-28T04:12:33;8.00;;;3.47;;
72422;SDS011;60413;55.658;37.498;2023-02-28T04:15:00;6.18;;;2.83;;
72422;SDS011;60413;55.658;37.498;2023-02-28T04:17:27;6.85;;;3.95;;
72422;SDS011;60413;55.658;37.498;2023-02-28T04:19:55;8.45;;;3.17;;
72422;SDS011;60413;55.658;37.498;2023-02-28T04:22:31;8.27;;;3.45;;
72422;SDS011;60413;55.658;37.498;2023-02-28T04:24:58;11.70;;;4.25;;
72422;SDS011;60413;55.658;37.498;2023-02-28T04:27:29;5.10;;;2.88;;
72422;SDS011;60413;55.658;37.498;2023-02-28T04:29:57;8.00;;;3.55;;
72422;SDS011;60413;55.658;37.498;2023-02-28T04:32:24;10.80;;;3.65;;
72422;SDS011;60413;55.658;37.498;2023-02-28T04:34:55;8.20;;;3.28;;
72422;SDS011;60413;55.658;37.498;2023-02-28T04:37:25;6.40;;;2.65;;
72422;SDS011;60413;55.658;37.498;2023-02-28T04:39:58;8.77;;;2.88;;
72422;SDS011;60413;55.658;37.498;2023-02-28T04:42:32;7.28;;;3.47;;
72422;SDS011;60413;55.658;37.498;2023-02-28T04:45:04;8.85;;;3.55;;
72422;SDS011;60413;55.658;37.498;2023-02-28T04:50:39;6.90;;;2.55;;
72422;SDS011;60413;55.658;37.498;2023-02-28T04:53:05;7.13;;;3.25;;
72422;SDS011;60413;55.658;37.498;2023-02-28T04:55:31;6.18;;;2.88;;
72422;SDS011;60413;55.658;37.498;2023-02-28T04:58:00;5.90;;;2.95;;
72422;SDS011;60413;55.658;37.498;2023-02-28T05:00:31;7.68;;;3.03;;
72422;SDS011;60413;55.658;37.498;2023-02-28T05:03:00;9.68;;;4.13;;
72422;SDS011;60413;55.658;37.498;2023-02-28T05:08:20;10.68;;;2.88;;
72422;SDS011;60413;55.658;37.498;2023-02-28T05:10:51;5.90;;;2.67;;
72422;SDS011;60413;55.658;37.498;2023-02-28T05:13:17;7.88;;;2.90;;
72422;SDS011;60413;55.658;37.498;2023-02-28T05:15:45;6.85;;;3.03;;
72422;SDS011;60413;55.658;37.498;2023-02-28T05:18:40;7.65;;;2.90;;
72422;SDS011;60413;55.658;37.498;2023-02-28T05:21:48;4.68;;;2.63;;
72422;SDS011;60413;55.658;37.498;2023-02-28T05:26:55;6.25;;;2.80;;
72422;SDS011;60413;55.658;37.498;2023-02-28T05:32:20;6.20;;;2.47;;
72422;SDS011;60413;55.658;37.498;2023-02-28T05:34:59;13.32;;;4.68;;
72422;SDS011;60413;55.658;37.498;2023-02-28T05:37:30;5.93;;;2.78;;
72422;SDS011;60413;55.658;37.498;2023-02-28T05:40:12;12.73;;;6.10;;
72422;SDS011;60413;55.658;37.498;2023-02-28T05:42:50;7.07;;;2.42;;
72422;SDS011;60413;55.658;37.498;2023-02-28T05:46:01;4.65;;;2.63;;
72422;SDS011;60413;55.658;37.498;2023-02-28T05:48:34;6.13;;;3.10;;
72422;SDS011;60413;55.658;37.498;2023-02-28T05:51:11;8.05;;;2.60;;
72422;SDS011;60413;55.658;37.498;2023-02-28T05:53:42;4.68;;;2.60;;
72422;SDS011;60413;55.658;37.498;2023-02-28T05:56:16;4.47;;;2.70;;
72422;SDS011;60413;55.658;37.498;2023-02-28T05:58:47;4.30;;;2.40;;
72422;SDS011;60413;55.658;37.498;2023-02-28T06:01:31;5.05;;;2.50;;
72422;SDS011;60413;55.658;37.498;2023-02-28T06:04:19;5.78;;;2.80;;
72422;SDS011;60413;55.658;37.498;2023-02-28T06:07:03;6.35;;;3.50;;
72422;SDS011;60413;55.658;37.498;2023-02-28T06:10:16;6.80;;;2.60;;
72422;SDS011;60413;55.658;37.498;2023-02-28T06:13:25;5.45;;;2.88;;
72422;SDS011;60413;55.658;37.498;2023-02-28T06:16:23;5.68;;;2.92;;
72422;SDS011;60413;55.658;37.498;2023-02-28T06:19:33;4.85;;;2.70;;
72422;SDS011;60413;55.658;37.498;2023-02-28T06:22:47;4.45;;;2.33;;
72422;SDS011;60413;55.658;37.498;2023-02-28T06:25:45;4.20;;;1.90;;
72422;SDS011;60413;55.658;37.498;2023-02-28T06:28:28;5.25;;;2.65;;
72422;SDS011;60413;55.658;37.498;2023-02-28T06:31:10;4.57;;;2.45;;
72422;SDS011;60413;55.658;37.498;2023-02-28T06:33:39;6.25;;;3.47;;
72422;SDS011;60413;55.658;37.498;2023-02-28T06:36:20;4.78;;;2.70;;
72422;SDS011;60413;55.658;37.498;2023-02-28T06:38:51;5.68;;;2.95;;
72422;SDS011;60413;55.658;37.498;2023-02-28T06:41:25;6.90;;;2.75;;
72422;SDS011;60413;55.658;37.498;2023-02-28T06:43:55;5.97;;;2.45;;
72422;SDS011;60413;55.658;37.498;2023-02-28T06:46:21;6.35;;;2.70;;
72422;SDS011;60413;55.658;37.498;2023-02-28T06:48:47;5.28;;;2.55;;
72422;SDS011;60413;55.658;37.498;2023-02-28T06:51:15;7.50;;;2.83;;
72422;SDS011;60413;55.658;37.498;2023-02-28T06:53:49;7.53;;;2.88;;
72422;SDS011;60413;55.658;37.498;2023-02-28T06:56:21;3.45;;;1.92;;
72422;SDS011;60413;55.658;37.498;2023-02-28T07:01:18;5.25;;;2.60;;
72422;SDS011;60413;55.658;37.498;2023-02-28T07:03:45;7.07;;;3.15;;
72422;SDS011;60413;55.658;37.498;2023-02-28T07:06:20;6.15;;;2.50;;
72422;SDS011;60413;55.658;37.498;2023-02-28T07:08:48;3.47;;;1.80;;
72422;SDS011;60413;55.658;37.498;2023-02-28T07:11:16;8.02;;;2.90;;
72422;SDS011;60413;55.658;37.498;2023-02-28T07:13:43;4.85;;;2.20;;
72422;SDS011;60413;55.658;37.498;2023-02-28T07:16:19;4.47;;;2.30;;
72422;SDS011;60413;55.658;37.498;2023-02-28T07:18:48;5.45;;;2.42;;
72422;SDS011;60413;55.658;37.498;2023-02-28T07:21:20;6.70;;;2.78;;
72422;SDS011;60413;55.658;37.498;2023-02-28T07:23:55;5.57;;;2.80;;
72422;SDS011;60413;55.658;37.498;2023-02-28T07:26:24;5.35;;;2.53;;
72422;SDS011;60413;55.658;37.498;2023-02-28T07:28:58;5.40;;;2.38;;
72422;SDS011;60413;55.658;37.498;2023-02-28T07:31:32;5.90;;;3.05;;
72422;SDS011;60413;55.658;37.498;2023-02-28T07:33:58;8.07;;;2.70;;
72422;SDS011;60413;55.658;37.498;2023-02-28T07:36:24;4.65;;;2.05;;
72422;SDS011;60413;55.658;37.498;2023-02-28T07:38:50;6.60;;;2.13;;
72422;SDS011;60413;55.658;37.498;2023-02-28T07:41:17;4.95;;;2.45;;
72422;SDS011;60413;55.658;37.498;2023-02-28T07:43:45;5.20;;;2.28;;
72422;SDS011;60413;55.658;37.498;2023-02-28T07:46:13;4.85;;;2.17;;
72422;SDS011;60413;55.658;37.498;2023-02-28T07:48:40;6.72;;;2.80;;
72422;SDS011;60413;55.658;37.498;2023-02-28T07:51:07;6.15;;;2.70;;
72422;SDS011;60413;55.658;37.498;2023-02-28T07:53:33;5.00;;;2.60;;
72422;SDS011;60413;55.658;37.498;2023-02-28T07:56:00;5.22;;;2.28;;
72422;SDS011;60413;55.658;37.498;2023-02-28T07:58:27;4.50;;;2.15;;
72422;SDS011;60413;55.658;37.498;2023-02-28T08:00:55;6.88;;;2.72;;
72422;SDS011;60413;55.658;37.498;2023-02-28T08:03:21;6.68;;;2.88;;
72422;SDS011;60413;55.658;37.498;2023-02-28T08:05:48;6.97;;;2.60;;
72422;SDS011;60413;55.658;37.498;2023-02-28T08:08:15;5.00;;;2.55;;
72422;SDS011;60413;55.658;37.498;2023-02-28T08:10:42;6.85;;;2.42;;
72422;SDS011;60413;55.658;37.498;2023-02-28T08:13:11;4.75;;;2.60;;
72422;SDS011;60413;55.658;37.498;2023-02-28T08:15:36;6.57;;;2.80;;
72422;SDS011;60413;55.658;37.498;2023-02-28T08:18:05;17.77;;;3.15;;
72422;SDS011;60413;55.658;37.498;2023-02-28T08:20:31;5.95;;;2.25;;
72422;SDS011;60413;55.658;37.498;2023-02-28T08:22:58;4.38;;;2.00;;
72422;SDS011;60413;55.658;37.498;2023-02-28T08:25:27;5.72;;;2.50;;
72422;SDS011;60413;55.658;37.498;2023-02-28T08:27:59;7.50;;;2.88;;
72422;SDS011;60413;55.658;37.498;2023-02-28T08:30:26;6.45;;;2.72;;
72422;SDS011;60413;55.658;37.498;2023-02-28T08:32:52;4.65;;;2.40;;
72422;SDS011;60413;55.658;37.498;2023-02-28T08:35:18;6.25;;;2.20;;
72422;SDS011;60413;55.658;37.498;2023-02-28T08:37:44;7.70;;;3.13;;
72422;SDS011;60413;55.658;37.498;2023-02-28T08:40:15;5.18;;;2.47;;
72422;SDS011;60413;55.658;37.498;2023-02-28T08:42:44;5.72;;;2.70;;
72422;SDS011;60413;55.658;37.498;2023-02-28T08:45:13;6.20;;;2.58;;
72422;SDS011;60413;55.658;37.498;2023-02-28T08:48:10;6.82;;;2.75;;
72422;SDS011;60413;55.658;37.498;2023-02-28T08:50:39;5.93;;;2.67;;
72422;SDS011;60413;55.658;37.498;2023-02-28T08:53:06;5.53;;;2.63;;
72422;SDS011;60413;55.658;37.498;2023-02-28T08:55:31;4.95;;;2.33;;
72422;SDS011;60413;55.658;37.498;2023-02-28T08:57:57;5.75;;;2.70;;
72422;SDS011;60413;55.658;37.498;2023-02-28T09:00:23;6.80;;;2.85;;
72422;SDS011;60413;55.658;37.498;2023-02-28T09:02:51;5.18;;;2.30;;
72422;SDS011;60413;55.658;37.498;2023-02-28T09:05:18;10.43;;;2.92;;
72422;SDS011;60413;55.658;37.498;2023-02-28T09:07:46;4.97;;;2.25;;
72422;SDS011;60413;55.658;37.498;2023-02-28T09:10:13;6.25;;;2.25;;
72422;SDS011;60413;55.658;37.498;2023-02-28T09:12:47;7.95;;;2.83;;
72422;SDS011;60413;55.658;37.498;2023-02-28T09:15:18;4.80;;;2.47;;
72422;SDS011;60413;55.658;37.498;2023-02-28T09:17:44;7.35;;;2.75;;
72422;SDS011;60413;55.658;37.498;2023-02-28T09:20:10;10.02;;;3.50;;
72422;SDS011;60413;55.658;37.498;2023-02-28T09:22:39;7.72;;;3.13;;
72422;SDS011;60413;55.658;37.498;2023-02-28T09:25:07;7.03;;;2.97;;
72422;SDS011;60413;55.658;37.498;2023-02-28T09:27:33;7.90;;;3.00;;
72422;SDS011;60413;55.658;37.498;2023-02-28T09:29:59;11.35;;;3.55;;
72422;SDS011;60413;55.658;37.498;2023-02-28T09:32:28;3.72;;;1.73;;
72422;SDS011;60413;55.658;37.498;2023-02-28T09:34:57;8.23;;;3.35;;
72422;SDS011;60413;55.658;37.498;2023-02-28T09:37:25;6.93;;;2.90;;
72422;SDS011;60413;55.658;37.498;2023-02-28T09:39:56;7.57;;;2.80;;
72422;SDS011;60413;55.658;37.498;2023-02-28T09:42:31;6.95;;;2.85;;
72422;SDS011;60413;55.658;37.498;2023-02-28T09:45:03;11.80;;;2.80;;
72422;SDS011;60413;55.658;37.498;2023-02-28T09:47:48;9.10;;;2.58;;
72422;SDS011;60413;55.658;37.498;2023-02-28T09:50:22;5.72;;;2.38;;
72422;SDS011;60413;55.658;37.498;2023-02-28T09:53:01;11.38;;;2.10;;
72422;SDS011;60413;55.658;37.498;2023-02-28T10:02:44;8.07;;;2.65;;
72422;SDS011;60413;55.658;37.498;2023-02-28T10:05:15;4.45;;;2.25;;
72422;SDS011;60413;55.658;37.498;2023-02-28T10:11:12;11.23;;;3.17;;
72422;SDS011;60413;55.658;37.498;2023-02-28T10:13:57;4.22;;;1.90;;
72422;SDS011;60413;55.658;37.498;2023-02-28T10:25:22;5.20;;;2.58;;
72422;SDS011;60413;55.658;37.498;2023-02-28T10:30:53;8.68;;;3.00;;
72422;SDS011;60413;55.658;37.498;2023-02-28T10:33:53;8.68;;;2.60;;
72422;SDS011;60413;55.658;37.498;2023-02-28T10:36:26;6.20;;;2.70;;
72422;SDS011;60413;55.658;37.498;2023-02-28T10:39:31;5.97;;;2.65;;
72422;SDS011;60413;55.658;37.498;2023-02-28T10:42:37;7.88;;;3.10;;
72422;SDS011;60413;55.658;37.498;2023-02-28T10:49:24;6.05;;;2.90;;
72422;SDS011;60413;55.658;37.498;2023-02-28T10:52:00;6.53;;;3.10;;
72422;SDS011;60413;55.658;37.498;2023-02-28T10:54:46;4.45;;;2.30;;
72422;SDS011;60413;55.658;37.498;2023-02-28T10:57:19;7.30;;;2.92;;
72422;SDS011;60413;55.658;37.498;2023-02-28T11:02:32;5.72;;;2.83;;
72422;SDS011;60413;55.658;37.498;2023-02-28T11:08:14;5.78;;;2.22;;
72422;SDS011;60413;55.658;37.498;2023-02-28T11:10:53;6.35;;;2.70;;
72422;SDS011;60413;55.658;37.498;2023-02-28T11:13:25;6.95;;;2.80;;
72422;SDS011;60413;55.658;37.498;2023-02-28T11:15:57;7.45;;;3.53;;
72422;SDS011;60413;55.658;37.498;2023-02-28T11:18:29;10.27;;;3.15;;
72422;SDS011;60413;55.658;37.498;2023-02-28T11:21:01;5.47;;;2.67;;
72422;SDS011;60413;55.658;37.498;2023-02-28T11:23:34;8.73;;;2.85;;
72422;SDS011;60413;55.658;37.498;2023-02-28T11:26:03;5.47;;;2.85;;
72422;SDS011;60413;55.658;37.498;2023-02-28T11:28:33;6.85;;;3.00;;
72422;SDS011;60413;55.658;37.498;2023-02-28T11:33:53;7.82;;;2.50;;
72422;SDS011;60413;55.658;37.498;2023-02-28T11:36:22;8.90;;;3.00;;
72422;SDS011;60413;55.658;37.498;2023-02-28T11:38:54;6.18;;;3.03;;
72422;SDS011;60413;55.658;37.498;2023-02-28T11:46:58;7.93;;;3.25;;
72422;SDS011;60413;55.658;37.498;2023-02-28T12:04:04;4.53;;;2.40;;
72422;SDS011;60413;55.658;37.498;2023-02-28T12:11:56;7.85;;;3.25;;
72422;SDS011;60413;55.658;37.498;2023-02-28T12:23:01;9.02;;;4.25;;
72422;SDS011;60413;55.658;37.498;2023-02-28T12:25:53;8.60;;;4.00;;
72422;SDS011;60413;55.658;37.498;2023-02-28T12:28:27;9.27;;;2.92;;
72422;SDS011;60413;55.658;37.498;2023-02-28T12:31:01;8.40;;;3.85;;
72422;SDS011;60413;55.658;37.498;2023-02-28T12:33:32;7.18;;;3.72;;
72422;SDS011;60413;55.658;37.498;2023-02-28T12:36:05;10.35;;;4.20;;
72422;SDS011;60413;55.658;37.498;2023-02-28T12:38:44;9.25;;;3.42;;
72422;SDS011;60413;55.658;37.498;2023-02-28T12:41:18;8.77;;;3.25;;
72422;SDS011;60413;55.658;37.498;2023-02-28T12:43:52;9.43;;;4.22;;
72422;SDS011;60413;55.658;37.498;2023-02-28T12:46:30;8.13;;;3.78;;
72422;SDS011;60413;55.658;37.498;2023-02-28T12:51:53;9.75;;;4.35;;
72422;SDS011;60413;55.658;37.498;2023-02-28T12:54:23;9.05;;;3.88;;
72422;SDS011;60413;55.658;37.498;2023-02-28T12:57:13;9.25;;;3.78;;
72422;SDS011;60413;55.658;37.498;2023-02-28T13:00:01;7.20;;;3.13;;
72422;SDS011;60413;55.658;37.498;2023-02-28T13:08:04;6.50;;;3.38;;
72422;SDS011;60413;55.658;37.498;2023-02-28T13:10:55;7.03;;;3.40;;
72422;SDS011;60413;55.658;37.498;2023-02-28T13:13:21;9.20;;;3.20;;
72422;SDS011;60413;55.658;37.498;2023-02-28T13:18:36;7.75;;;3.22;;
72422;SDS011;60413;55.658;37.498;2023-02-28T13:21:08;11.30;;;3.90;;
72422;SDS011;60413;55.658;37.498;2023-02-28T13:29:00;6.13;;;3.35;;
72422;SDS011;60413;55.658;37.498;2023-02-28T13:31:31;9.57;;;3.65;;
72422;SDS011;60413;55.658;37.498;2023-02-28T13:34:11;11.50;;;3.78;;
72422;SDS011;60413;55.658;37.498;2023-02-28T13:36:40;6.53;;;3.63;;
72422;SDS011;60413;55.658;37.498;2023-02-28T13:47:36;7.05;;;3.55;;
72422;SDS011;60413;55.658;37.498;2023-02-28T13:53:06;8.05;;;3.58;;
72422;SDS011;60413;55.658;37.498;2023-02-28T14:01:49;12.40;;;3.28;;
72422;SDS011;60413;55.658;37.498;2023-02-28T14:07:08;7.40;;;3.50;;
72422;SDS011;60413;55.658;37.498;2023-02-28T14:09:44;8.57;;;3.47;;
72422;SDS011;60413;55.658;37.498;2023-02-28T14:18:14;9.15;;;4.95;;
72422;SDS011;60413;55.658;37.498;2023-02-28T14:20:46;7.05;;;3.88;;
72422;SDS011;60413;55.658;37.498;2023-02-28T14:23:22;9.75;;;4.07;;
72422;SDS011;60413;55.658;37.498;2023-02-28T14:26:21;6.85;;;3.72;;
72422;SDS011;60413;55.658;37.498;2023-02-28T14:29:15;8.57;;;3.53;;
72422;SDS011;60413;55.658;37.498;2023-02-28T14:32:01;4.72;;;2.33;;
72422;SDS011;60413;55.658;37.498;2023-02-28T14:37:15;8.05;;;3.90;;
72422;SDS011;60413;55.658;37.498;2023-02-28T14:39:45;8.02;;;3.28;;
72422;SDS011;60413;55.658;37.498;2023-02-28T14:42:29;10.43;;;4.20;;
72422;SDS011;60413;55.658;37.498;2023-02-28T14:45:00;7.85;;;3.72;;
72422;SDS011;60413;55.658;37.498;2023-02-28T14:47:40;4.78;;;2.55;;
72422;SDS011;60413;55.658;37.498;2023-02-28T14:50:17;4.28;;;2.42;;
72422;SDS011;60413;55.658;37.498;2023-02-28T14:52:46;9.10;;;3.90;;
72422;SDS011;60413;55.658;37.498;2023-02-28T14:55:14;7.72;;;2.85;;
72422;SDS011;60413;55.658;37.498;2023-02-28T14:57:55;9.50;;;3.00;;
72422;SDS011;60413;55.658;37.498;2023-02-28T15:00:50;8.43;;;3.25;;
72422;SDS011;60413;55.658;37.498;2023-02-28T15:03:23;10.65;;;4.18;;
72422;SDS011;60413;55.658;37.498;2023-02-28T15:06:04;7.10;;;3.58;;
72422;SDS011;60413;55.658;37.498;2023-02-28T15:08:37;6.50;;;3.63;;
72422;SDS011;60413;55.658;37.498;2023-02-28T15:11:09;8.32;;;3.25;;
72422;SDS011;60413;55.658;37.498;2023-02-28T15:13:44;10.18;;;3.28;;
72422;SDS011;60413;55.658;37.498;2023-02-28T15:16:15;8.85;;;3.88;;
72422;SDS011;60413;55.658;37.498;2023-02-28T15:19:00;6.82;;;2.58;;
72422;SDS011;60413;55.658;37.498;2023-02-28T15:21:34;9.02;;;3.85;;
72422;SDS011;60413;55.658;37.498;2023-02-28T15:26:59;8.93;;;3.67;;
72422;SDS011;60413;55.658;37.498;2023-02-28T15:29:41;7.63;;;3.08;;
72422;SDS011;60413;55.658;37.498;2023-02-28T15:32:32;7.93;;;3.63;;
72422;SDS011;60413;55.658;37.498;2023-02-28T15:37:56;6.15;;;2.65;;
72422;SDS011;60413;55.658;37.498;2023-02-28T15:40:45;6.45;;;3.00;;
72422;SDS011;60413;55.658;37.498;2023-02-28T15:43:25;6.15;;;3.22;;
72422;SDS011;60413;55.658;37.498;2023-02-28T15:48:28;5.60;;;2.88;;
72422;SDS011;60413;55.658;37.498;2023-02-28T15:51:03;5.53;;;2.95;;
72422;SDS011;60413;55.658;37.498;2023-02-28T15:53:39;9.85;;;3.90;;
72422;SDS011;60413;55.658;37.498;2023-02-28T15:56:20;10.90;;;4.75;;
72422;SDS011;60413;55.658;37.498;2023-02-28T15:59:00;9.45;;;3.70;;
72422;SDS011;60413;55.658;37.498;2023-02-28T16:01:29;9.55;;;2.33;;
72422;SDS011;60413;55.658;37.498;2023-02-28T16:04:03;6.05;;;2.63;;
72422;SDS011;60413;55.658;37.498;2023-02-28T16:09:32;7.50;;;3.20;;
72422;SDS011;60413;55.658;37.498;2023-02-28T16:11:59;7.53;;;2.83;;
72422;SDS011;60413;55.658;37.498;2023-02-28T16:14:28;7.75;;;2.63;;
72422;SDS011;60413;55.658;37.498;2023-02-28T16:17:20;7.15;;;3.25;;
72422;SDS011;60413;55.658;37.498;2023-02-28T16:19:52;6.32;;;3.17;;
72422;SDS011;60413;55.658;37.498;2023-02-28T16:22:19;5.68;;;2.70;;
72422;SDS011;60413;55.658;37.498;2023-02-28T16:24:53;5.15;;;2.63;;
72422;SDS011;60413;55.658;37.498;2023-02-28T16:27:50;8.10;;;3.20;;
72422;SDS011;60413;55.658;37.498;2023-02-28T16:30:34;5.40;;;2.40;;
72422;SDS011;60413;55.658;37.498;2023-02-28T16:33:02;6.63;;;2.70;;
72422;SDS011;60413;55.658;37.498;2023-02-28T16:35:29;6.88;;;2.80;;
72422;SDS011;60413;55.658;37.498;2023-02-28T16:38:19;5.60;;;2.65;;
72422;SDS011;60413;55.658;37.498;2023-02-28T16:40:49;5.55;;;2.25;;
72422;SDS011;60413;55.658;37.498;2023-02-28T16:43:19;7.15;;;2.85;;
72422;SDS011;60413;55.658;37.498;2023-02-28T16:46:00;5.22;;;2.45;;
72422;SDS011;60413;55.658;37.498;2023-02-28T16:51:47;4.75;;;2.38;;
72422;SDS011;60413;55.658;37.498;2023-02-28T16:54:15;4.97;;;2.45;;
72422;SDS011;60413;55.658;37.498;2023-02-28T16:56:46;5.43;;;2.75;;
72422;SDS011;60413;55.658;37.498;2023-02-28T16:59:37;5.50;;;2.22;;
72422;SDS011;60413;55.658;37.498;2023-02-28T17:02:08;5.70;;;2.10;;
72422;SDS011;60413;55.658;37.498;2023-02-28T17:05:03;5.25;;;2.47;;
72422;SDS011;60413;55.658;37.498;2023-02-28T17:07:46;4.60;;;2.13;;
72422;SDS011;60413;55.658;37.498;2023-02-28T17:10:31;4.55;;;2.20;;
72422;SDS011;60413;55.658;37.498;2023-02-28T17:13:01;5.68;;;2.28;;
72422;SDS011;60413;55.658;37.498;2023-02-28T17:15:38;4.38;;;2.13;;
72422;SDS011;60413;55.658;37.498;2023-02-28T17:18:12;9.05;;;2.65;;
72422;SDS011;60413;55.658;37.498;2023-02-28T17:21:03;5.63;;;2.25;;
72422;SDS011;60413;55.658;37.498;2023-02-28T17:23:42;5.35;;;2.20;;
72422;SDS011;60413;55.658;37.498;2023-02-28T17:29:00;3.42;;;1.65;;
72422;SDS011;60413;55.658;37.498;2023-02-28T17:31:29;2.30;;;1.10;;
72422;SDS011;60413;55.658;37.498;2023-02-28T17:34:18;3.97;;;1.30;;
72422;SDS011;60413;55.658;37.498;2023-02-28T17:37:13;6.22;;;1.52;;
72422;SDS011;60413;55.658;37.498;2023-02-28T17:43:28;3.28;;;1.60;;
72422;SDS011;60413;55.658;37.498;2023-02-28T17:45:58;3.85;;;1.73;;
72422;SDS011;60413;55.658;37.498;2023-02-28T17:48:25;9.00;;;3.95;;
72422;SDS011;60413;55.658;37.498;2023-02-28T17:50:57;7.75;;;2.38;;
72422;SDS011;60413;55.658;37.498;2023-02-28T17:53:25;5.15;;;2.22;;
72422;SDS011;60413;55.658;37.498;2023-02-28T17:55:54;4.18;;;2.15;;
72422;SDS011;60413;55.658;37.498;2023-02-28T17:58:21;3.40;;;1.95;;
72422;SDS011;60413;55.658;37.498;2023-02-28T18:00:47;5.03;;;2.25;;
72422;SDS011;60413;55.658;37.498;2023-02-28T18:03:19;5.47;;;2.50;;
72422;SDS011;60413;55.658;37.498;2023-02-28T18:05:46;4.32;;;1.85;;
72422;SDS011;60413;55.658;37.498;2023-02-28T18:08:32;6.32;;;1.88;;
72422;SDS011;60413;55.658;37.498;2023-02-28T18:11:22;2.75;;;1.35;;